createdAt,value
2023-01-30T00:02:26.655Z,31.50
2023-01-30T00:07:31.008Z,33.65
2023-01-30T00:12:36.240Z,34.95
2023-01-30T00:17:41.941Z,67.00
2023-01-30T00:23:00.144Z,43.65
2023-01-30T00:28:05.080Z,43.95
2023-01-30T00:33:10.812Z,36.63
2023-01-30T00:38:15.076Z,36.85
2023-01-30T00:43:39.456Z,34.78
2023-01-30T00:48:43.912Z,57.78
2023-01-30T00:53:47.305Z,32.78
2023-01-30T00:58:50.441Z,33.20
2023-01-30T01:03:54.479Z,34.67
2023-01-30T01:08:58.442Z,34.53
2023-01-30T01:14:04.946Z,32.08
2023-01-30T01:19:09.326Z,32.33
2023-01-30T01:24:15.360Z,36.97
2023-01-30T01:29:19.937Z,34.97
2023-01-30T01:34:24.389Z,37.25
2023-01-30T01:39:47.209Z,35.85
2023-01-30T01:45:19.743Z,36.95
2023-01-30T01:50:31.677Z,33.50
2023-01-30T02:00:42.372Z,34.45
2023-01-30T02:05:50.593Z,38.38
2023-01-30T02:11:07.700Z,34.30
2023-01-30T02:16:14.242Z,41.83
2023-01-30T02:21:52.992Z,36.30
2023-01-30T02:27:15.488Z,49.05
2023-01-30T02:32:33.794Z,49.95
2023-01-30T02:38:00.295Z,46.20
2023-01-30T02:43:23.604Z,36.35
2023-01-30T02:48:53.895Z,35.00
2023-01-30T02:53:59.623Z,27.85
2023-01-30T02:59:07.110Z,26.52
2023-01-30T03:04:55.745Z,28.17
2023-01-30T03:10:38.379Z,41.40
2023-01-30T03:15:57.087Z,25.40
2023-01-30T03:21:06.662Z,26.63
2023-01-30T03:26:18.261Z,44.13
2023-01-30T03:31:22.641Z,24.80
2023-01-30T03:36:27.535Z,27.50
2023-01-30T03:41:33.925Z,28.63
2023-01-30T03:46:38.664Z,30.42
2023-01-30T03:51:42.463Z,26.90
2023-01-30T03:56:47.141Z,31.55
2023-01-30T04:01:51.579Z,27.65
2023-01-30T04:06:59.638Z,31.88
2023-01-30T04:12:04.960Z,100.45
2023-01-30T04:17:15.523Z,40.42
2023-01-30T04:22:34.209Z,38.45
2023-01-30T04:27:37.754Z,26.45
2023-01-30T04:32:52.447Z,46.63
2023-01-30T04:37:57.367Z,42.88
2023-01-30T04:43:01.209Z,29.48
2023-01-30T04:48:26.699Z,24.08
2023-01-30T04:53:35.581Z,24.92
2023-01-30T04:58:39.646Z,21.90
2023-01-30T05:03:45.063Z,27.55
2023-01-30T05:08:50.011Z,26.75
2023-01-30T05:13:59.699Z,28.45
2023-01-30T05:19:03.872Z,22.70
2023-01-30T05:24:07.962Z,30.33
2023-01-30T05:29:11.831Z,29.13
2023-01-30T05:34:15.648Z,23.40
2023-01-30T05:39:20.839Z,24.25
2023-01-30T05:44:24.593Z,37.55
2023-01-30T05:49:29.581Z,23.30
2023-01-30T05:54:34.811Z,28.65
2023-01-30T05:59:40.225Z,30.67
2023-01-30T06:04:44.240Z,30.20
2023-01-30T06:09:48.072Z,22.42
2023-01-30T06:14:53.779Z,26.02
2023-01-30T06:19:58.728Z,30.35
2023-01-30T06:25:03.945Z,37.33
2023-01-30T06:30:08.904Z,50.53
2023-01-30T06:35:14.469Z,57.08
2023-01-30T06:40:18.658Z,30.48
2023-01-30T06:45:22.472Z,34.42
2023-01-30T06:50:28.162Z,30.17
2023-01-30T06:55:35.096Z,37.83
2023-01-30T07:00:40.851Z,30.95
2023-01-30T07:05:47.471Z,27.33
2023-01-30T07:10:51.467Z,32.08
2023-01-30T07:15:56.402Z,54.58
2023-01-30T07:21:01.449Z,53.13
2023-01-30T07:26:06.799Z,44.58
2023-01-30T07:31:12.539Z,63.00
2023-01-30T07:36:17.329Z,59.83
2023-01-30T07:41:22.057Z,42.92
2023-01-30T07:46:26.438Z,45.15
2023-01-30T07:51:30.279Z,43.17
2023-01-30T07:56:35.423Z,38.50
2023-01-30T08:01:40.236Z,31.33
2023-01-30T08:06:44.538Z,29.95
2023-01-30T08:11:49.241Z,31.60
2023-01-30T08:16:53.055Z,31.33
2023-01-30T08:21:59.440Z,49.88
2023-01-30T08:27:03.518Z,51.15
2023-01-30T08:32:06.947Z,55.15
2023-01-30T08:37:11.974Z,38.85
2023-01-30T08:42:15.877Z,39.08
2023-01-30T08:47:19.769Z,33.80
2023-01-30T08:52:24.419Z,40.83
2023-01-30T08:57:28.190Z,36.80
2023-01-30T09:02:32.558Z,26.58
2023-01-30T09:07:37.338Z,29.55
2023-01-30T09:12:41.804Z,28.65
2023-01-30T09:17:46.938Z,23.20
2023-01-30T09:22:51.973Z,30.13
2023-01-30T09:27:56.314Z,33.53
2023-01-30T09:33:00.993Z,29.35
2023-01-30T09:38:05.777Z,36.13
2023-01-30T09:43:30.288Z,31.88
2023-01-30T09:48:44.799Z,29.65
2023-01-30T09:54:14.446Z,28.17
2023-01-30T09:59:26.398Z,21.75
2023-01-30T10:04:35.589Z,24.40
2023-01-30T10:09:56.423Z,21.08
2023-01-30T10:15:42.636Z,28.73
2023-01-30T10:21:16.081Z,27.95
2023-01-30T10:26:26.673Z,24.67
2023-01-30T10:31:41.382Z,22.02
2023-01-30T10:37:10.846Z,21.95
2023-01-30T10:42:22.572Z,28.92
2023-01-30T10:47:51.571Z,19.75
2023-01-30T10:53:17.463Z,21.45
2023-01-30T10:58:26.631Z,23.55
2023-01-30T11:04:12.865Z,24.30
2023-01-30T11:09:16.648Z,21.58
2023-01-30T11:14:20.909Z,22.17
2023-01-30T11:19:33.571Z,23.27
2023-01-30T11:24:45.482Z,23.88
2023-01-30T11:29:50.492Z,28.05
2023-01-30T11:35:09.920Z,22.65
2023-01-30T11:40:27.025Z,21.33
2023-01-30T11:45:39.867Z,22.05
2023-01-30T11:50:49.688Z,23.40
2023-01-30T11:56:05.439Z,24.85
2023-01-30T12:01:12.295Z,19.95
2023-01-30T12:06:34.558Z,21.80
2023-01-30T12:17:12.835Z,25.48
2023-01-30T12:22:32.413Z,29.13
2023-01-30T12:27:45.035Z,18.08
2023-01-30T12:32:49.213Z,24.33
2023-01-30T12:38:25.401Z,20.58
2023-01-30T12:43:57.056Z,19.90
2023-01-30T12:49:15.554Z,24.20
2023-01-30T12:54:43.310Z,18.27
2023-01-30T13:00:19.846Z,17.15
2023-01-30T13:05:43.463Z,19.63
2023-01-30T13:11:12.323Z,19.48
2023-01-30T13:16:45.147Z,17.10
2023-01-30T13:22:26.621Z,20.10
2023-01-30T13:27:37.099Z,16.67
2023-01-30T13:32:53.241Z,19.80
2023-01-30T13:37:58.006Z,17.98
2023-01-30T13:43:14.246Z,14.55
2023-01-30T13:48:31.911Z,16.77
2023-01-30T13:53:39.928Z,13.48
2023-01-30T13:58:56.040Z,16.70
2023-01-30T14:04:40.129Z,15.48
2023-01-30T14:10:05.716Z,16.40
2023-01-30T14:15:15.825Z,18.30
2023-01-30T14:20:23.065Z,18.70
2023-01-30T14:25:26.859Z,19.50
2023-01-30T14:30:39.365Z,19.77
2023-01-30T14:35:43.799Z,19.10
2023-01-30T14:41:00.108Z,25.77
2023-01-30T14:46:18.398Z,19.85
2023-01-30T14:51:48.013Z,17.38
2023-01-30T14:57:06.621Z,23.98
2023-01-30T15:02:14.370Z,22.17
2023-01-30T15:07:24.599Z,22.90
2023-01-30T15:12:28.712Z,20.00
2023-01-30T15:18:08.433Z,20.88
2023-01-30T15:23:43.696Z,22.08
2023-01-30T15:28:58.078Z,22.60
2023-01-30T15:34:02.337Z,15.98
2023-01-30T15:39:18.619Z,22.75
2023-01-30T15:45:03.536Z,23.30
2023-01-30T15:50:09.895Z,16.40
2023-01-30T15:55:24.917Z,14.68
2023-01-30T16:00:53.571Z,18.08
2023-01-30T16:05:58.454Z,17.17
2023-01-30T16:11:03.731Z,13.43
2023-01-30T16:16:13.717Z,16.38
2023-01-30T16:21:26.903Z,16.23
2023-01-30T16:26:34.566Z,13.80
2023-01-30T16:31:40.237Z,14.95
2023-01-30T16:36:47.681Z,18.38
2023-01-30T16:41:59.637Z,15.93
2023-01-30T16:47:04.968Z,18.92
2023-01-30T16:52:51.143Z,18.10
2023-01-30T16:58:02.127Z,21.20
2023-01-30T17:03:19.181Z,19.20
2023-01-30T17:08:42.901Z,16.30
2023-01-30T17:14:06.646Z,19.42
2023-01-30T17:19:10.656Z,21.42
2023-01-30T17:24:17.274Z,14.88
2023-01-30T17:29:41.437Z,18.77
2023-01-30T17:34:46.717Z,46.92
2023-01-30T17:39:50.946Z,28.48
2023-01-30T17:45:35.554Z,28.17
2023-01-30T17:50:40.028Z,22.27
2023-01-30T17:56:04.121Z,38.35
2023-01-30T18:01:09.068Z,23.77
2023-01-30T18:06:16.333Z,34.90
2023-01-30T18:11:24.676Z,35.85
2023-01-30T18:16:33.675Z,31.55
2023-01-30T18:21:40.065Z,45.40
2023-01-30T18:26:44.874Z,36.65
2023-01-30T18:31:48.771Z,36.63
2023-01-30T18:36:53.634Z,35.67
2023-01-30T18:41:57.945Z,34.28
2023-01-30T18:47:03.816Z,31.02
2023-01-30T18:52:08.098Z,34.50
2023-01-30T18:57:12.526Z,23.63
2023-01-30T19:02:16.822Z,38.80
2023-01-30T19:07:21.037Z,46.97
2023-01-30T19:12:43.620Z,48.25
2023-01-30T19:17:48.405Z,43.58
2023-01-30T19:22:55.738Z,49.90
2023-01-30T19:27:59.104Z,84.35
2023-01-30T19:33:03.850Z,58.10
2023-01-30T19:38:07.909Z,52.92
2023-01-30T19:43:13.434Z,54.25
2023-01-30T19:48:18.012Z,94.78
2023-01-30T19:53:21.442Z,55.42
2023-01-30T19:58:25.428Z,54.28
2023-01-30T20:03:29.340Z,64.88
2023-01-30T20:08:34.957Z,46.13
2023-01-30T20:13:42.553Z,46.63
2023-01-30T20:18:48.399Z,73.32
2023-01-30T20:23:53.494Z,45.72
2023-01-30T20:28:58.589Z,43.60
2023-01-30T20:34:05.683Z,64.00
2023-01-30T20:39:09.561Z,39.83
2023-01-30T20:44:14.608Z,41.97
2023-01-30T20:49:21.044Z,44.28
2023-01-30T20:54:26.012Z,45.30
2023-01-30T20:59:30.361Z,39.75
2023-01-30T21:04:34.500Z,37.42
2023-01-30T21:09:39.479Z,36.58
2023-01-30T21:14:43.544Z,39.42
2023-01-30T21:19:49.044Z,43.17
2023-01-30T21:24:53.822Z,54.88
2023-01-30T21:29:58.869Z,38.78
2023-01-30T21:35:03.380Z,73.28
2023-01-30T21:40:28.147Z,62.78
2023-01-30T21:45:32.254Z,58.75
2023-01-30T21:50:36.482Z,49.10
2023-01-30T21:55:40.580Z,48.40
2023-01-30T22:00:44.556Z,37.58
2023-01-30T22:05:48.880Z,74.35
2023-01-30T22:10:53.086Z,44.88
2023-01-30T22:16:03.152Z,43.15
2023-01-30T22:21:16.061Z,38.38
2023-01-30T22:26:23.217Z,48.70
